createdAt,value
2018-06-02T00:01:38.301Z,50.80
2018-06-02T00:04:06.642Z,50.70
2018-06-02T00:06:34.254Z,50.60
2018-06-02T00:09:02.605Z,50.90
2018-06-02T00:11:31.127Z,50.80
2018-06-02T00:13:58.707Z,51.00
2018-06-02T00:16:27.085Z,51.20
2018-06-02T00:18:54.667Z,51.20
2018-06-02T00:21:23.600Z,51.30
2018-06-02T00:23:51.184Z,51.10
2018-06-02T00:26:18.804Z,51.10
2018-06-02T00:28:46.378Z,51.10
2018-06-02T00:31:13.987Z,51.30
2018-06-02T00:33:41.579Z,51.10
2018-06-02T00:36:09.207Z,51.30
2018-06-02T00:38:37.551Z,51.50
2018-06-02T00:41:05.195Z,51.40
2018-06-02T00:43:32.770Z,51.40
2018-06-02T00:46:00.390Z,51.30
2018-06-02T00:48:27.975Z,51.30
2018-06-02T00:50:55.588Z,51.30
2018-06-02T00:53:23.171Z,51.30
2018-06-02T00:55:50.787Z,51.30
2018-06-02T00:58:18.426Z,51.30
2018-06-02T01:00:46.012Z,51.20
2018-06-02T01:03:13.629Z,51.30
2018-06-02T01:05:41.975Z,51.50
2018-06-02T01:08:09.588Z,51.40
2018-06-02T01:10:37.935Z,51.50
2018-06-02T01:13:05.547Z,51.50
2018-06-02T01:15:33.900Z,51.50
2018-06-02T01:18:01.519Z,51.40
2018-06-02T01:20:29.867Z,51.70
2018-06-02T01:22:57.479Z,51.60
2018-06-02T01:25:25.827Z,51.80
2018-06-02T01:27:53.443Z,51.70
2018-06-02T01:30:21.786Z,51.80
2018-06-02T01:32:49.403Z,51.80
2018-06-02T01:35:17.750Z,51.70
2018-06-02T01:37:45.363Z,51.70
2018-06-02T01:40:13.707Z,51.90
2018-06-02T01:42:41.319Z,51.60
2018-06-02T01:45:08.905Z,51.80
2018-06-02T01:47:37.284Z,51.80
2018-06-02T01:50:04.879Z,51.80
2018-06-02T01:52:33.255Z,51.80
2018-06-02T01:55:01.601Z,51.80
2018-06-02T01:57:29.210Z,51.70
2018-06-02T01:59:56.795Z,51.80
2018-06-02T02:02:25.179Z,51.60
2018-06-02T02:04:53.530Z,51.70
2018-06-02T02:07:21.139Z,51.60
2018-06-02T02:09:48.723Z,51.70
2018-06-02T02:12:17.103Z,51.90
2018-06-02T02:14:45.456Z,52.50
2018-06-02T02:17:13.076Z,51.80
2018-06-02T02:19:41.427Z,51.90
2018-06-02T02:22:09.046Z,51.90
2018-06-02T02:24:36.622Z,52.00
2018-06-02T02:27:04.262Z,52.00
2018-06-02T02:29:31.834Z,52.20
2018-06-02T02:31:59.413Z,52.10
2018-06-02T02:34:27.027Z,52.20
2018-06-02T02:36:54.706Z,51.90
2018-06-02T02:39:22.323Z,52.20
2018-06-02T02:41:49.898Z,52.20
2018-06-02T02:44:18.278Z,52.20
2018-06-02T02:46:45.872Z,52.20
2018-06-02T02:49:13.491Z,52.20
2018-06-02T02:51:41.072Z,52.20
2018-06-02T02:54:08.683Z,52.30
2018-06-02T02:56:36.269Z,52.50
2018-06-02T02:59:04.647Z,52.60
2018-06-02T03:01:32.991Z,53.10
2018-06-02T03:04:00.607Z,52.60
2018-06-02T03:06:28.191Z,52.80
2018-06-02T03:08:56.579Z,52.80
2018-06-02T03:11:24.919Z,52.80
2018-06-02T03:13:52.539Z,52.80
2018-06-02T03:16:20.883Z,52.80
2018-06-02T03:18:48.502Z,52.80
2018-06-02T03:21:16.083Z,52.70
2018-06-02T03:23:44.463Z,52.70
2018-06-02T03:26:12.048Z,52.60
2018-06-02T03:28:40.426Z,52.50
2018-06-02T03:31:08.012Z,52.20
2018-06-02T03:33:36.399Z,52.50
2018-06-02T03:36:04.749Z,52.50
2018-06-02T03:38:32.359Z,52.40
2018-06-02T03:41:00.704Z,52.50
2018-06-02T03:43:28.315Z,52.40
2018-06-02T03:45:55.890Z,52.40
2018-06-02T03:48:24.270Z,52.40
2018-06-02T03:50:51.852Z,52.30
2018-06-02T03:53:20.195Z,53.00
2018-06-02T03:55:47.811Z,52.40
2018-06-02T03:58:15.391Z,52.40
2018-06-02T04:00:43.773Z,52.50
2018-06-02T04:03:11.357Z,52.40
2018-06-02T04:05:39.743Z,52.60
2018-06-02T04:08:08.086Z,52.60
2018-06-02T04:10:35.703Z,52.50
2018-06-02T04:13:03.289Z,52.60
2018-06-02T04:15:31.675Z,52.60
2018-06-02T04:18:00.023Z,52.60
2018-06-02T04:20:27.811Z,52.50
2018-06-02T04:22:55.394Z,52.60
2018-06-02T04:25:23.008Z,52.70
2018-06-02T04:27:50.592Z,52.80
2018-06-02T04:30:18.224Z,52.70
2018-06-02T04:32:45.845Z,52.90
2018-06-02T04:35:13.463Z,52.70
2018-06-02T04:37:41.039Z,52.80
2018-06-02T04:40:08.651Z,52.80
2018-06-02T04:42:36.231Z,52.70
2018-06-02T04:45:04.511Z,52.80
2018-06-02T04:47:32.086Z,52.80
2018-06-02T04:49:59.702Z,53.00
2018-06-02T04:52:27.278Z,52.90
2018-06-02T04:54:54.891Z,52.90
2018-06-02T04:57:23.227Z,52.90
2018-06-02T04:59:50.834Z,52.90
2018-06-02T05:02:18.410Z,53.10
2018-06-02T05:04:46.018Z,53.10
2018-06-02T05:07:13.590Z,53.00
2018-06-02T05:09:41.203Z,53.10
2018-06-02T05:12:08.783Z,53.10
2018-06-02T05:14:36.395Z,53.10
2018-06-02T05:17:04.734Z,53.30
2018-06-02T05:19:32.352Z,53.20
2018-06-02T05:22:00.699Z,53.20
2018-06-02T05:24:28.316Z,53.10
2018-06-02T05:26:56.650Z,53.40
2018-06-02T05:29:24.272Z,53.30
2018-06-02T05:31:52.623Z,53.50
2018-06-02T05:34:20.196Z,53.50
2018-06-02T05:36:47.806Z,53.50
2018-06-02T05:39:16.142Z,53.50
2018-06-02T05:41:43.747Z,53.40
2018-06-02T05:44:11.329Z,53.40
2018-06-02T05:46:38.943Z,53.50
2018-06-02T05:49:06.524Z,53.60
2018-06-02T05:51:34.138Z,53.40
2018-06-02T05:54:01.714Z,53.50
2018-06-02T05:56:29.332Z,53.60
2018-06-02T05:58:56.911Z,53.40
2018-06-02T06:01:24.536Z,53.30
2018-06-02T06:03:52.111Z,53.20
2018-06-02T06:06:19.731Z,53.20
2018-06-02T06:08:47.307Z,53.10
2018-06-02T06:11:14.919Z,53.00
2018-06-02T06:13:42.496Z,53.10
2018-06-02T06:16:10.119Z,53.20
2018-06-02T06:18:37.711Z,52.90
2018-06-02T06:21:05.354Z,52.90
2018-06-02T06:23:33.698Z,53.00
2018-06-02T06:26:01.315Z,53.00
2018-06-02T06:28:29.671Z,53.20
2018-06-02T06:30:57.290Z,53.10
2018-06-02T06:33:24.866Z,53.00
2018-06-02T06:35:52.481Z,53.00
2018-06-02T06:38:20.087Z,52.90
2018-06-02T06:40:48.471Z,52.90
2018-06-02T06:43:16.051Z,53.20
2018-06-02T06:45:43.665Z,53.00
2018-06-02T06:48:11.350Z,53.10
2018-06-02T06:50:39.000Z,53.10
2018-06-02T06:53:06.567Z,53.20
2018-06-02T06:55:34.188Z,53.10
2018-06-02T06:58:01.773Z,53.30
2018-06-02T07:00:31.158Z,53.30
2018-06-02T07:02:58.771Z,53.30
2018-06-02T07:05:26.522Z,53.30
2018-06-02T07:07:54.903Z,53.10
2018-06-02T07:10:22.479Z,53.00
2018-06-02T07:12:50.092Z,53.10
2018-06-02T07:15:18.629Z,53.00
2018-06-02T07:17:46.301Z,53.00
2018-06-02T07:20:14.072Z,53.20
2018-06-02T07:22:41.683Z,53.10
2018-06-02T07:25:09.263Z,53.10
2018-06-02T07:27:36.890Z,53.10
2018-06-02T07:30:05.214Z,53.10
2018-06-02T07:32:32.858Z,53.10
2018-06-02T07:35:00.435Z,53.10
2018-06-02T07:37:28.051Z,53.10
2018-06-02T07:39:55.627Z,53.00
2018-06-02T07:42:23.241Z,53.10
2018-06-02T07:44:50.814Z,53.70
2018-06-02T07:47:18.423Z,53.10
2018-06-02T07:49:46.062Z,52.90
2018-06-02T07:52:14.407Z,53.00
2018-06-02T07:54:43.464Z,53.50
2018-06-02T07:57:11.107Z,52.90
2018-06-02T07:59:39.451Z,52.90
2018-06-02T08:02:07.062Z,52.90
2018-06-02T08:04:35.399Z,52.90
2018-06-02T08:07:03.017Z,52.80
2018-06-02T08:09:31.359Z,53.30
2018-06-02T08:11:59.022Z,52.70
2018-06-02T08:14:26.605Z,52.90
2018-06-02T08:16:54.219Z,52.70
2018-06-02T08:19:23.308Z,52.70
2018-06-02T08:21:50.925Z,52.60
2018-06-02T08:24:19.267Z,52.60
2018-06-02T08:26:46.886Z,52.60
2018-06-02T08:29:15.231Z,53.10
2018-06-02T08:31:42.807Z,52.40
2018-06-02T08:34:10.419Z,52.40
2018-06-02T08:36:38.767Z,52.30
2018-06-02T08:39:06.379Z,52.20
2018-06-02T08:41:34.719Z,52.30
2018-06-02T08:44:02.332Z,52.30
2018-06-02T08:46:29.943Z,52.20
2018-06-02T08:48:57.559Z,52.00
2018-06-02T08:51:25.131Z,52.10
2018-06-02T08:53:53.516Z,52.10
2018-06-02T08:56:21.095Z,52.10
2018-06-02T08:58:48.715Z,51.90
2018-06-02T09:01:16.295Z,52.00
2018-06-02T09:03:43.937Z,51.70
2018-06-02T09:06:12.279Z,52.10
2018-06-02T09:08:39.893Z,52.10
2018-06-02T09:11:07.508Z,52.20
2018-06-02T09:13:35.127Z,52.70
2018-06-02T09:16:02.707Z,52.20
2018-06-02T09:18:30.352Z,52.50
2018-06-02T09:20:57.930Z,52.60
2018-06-02T09:23:25.554Z,52.40
2018-06-02T09:25:53.912Z,51.60
2018-06-02T09:28:21.537Z,51.60
2018-06-02T09:30:49.146Z,51.70
2018-06-02T09:33:16.759Z,51.50
2018-06-02T09:35:45.104Z,51.30
2018-06-02T09:38:12.714Z,51.30
2018-06-02T09:40:41.055Z,51.40
2018-06-02T09:43:08.675Z,51.40
2018-06-02T09:45:37.026Z,51.30
2018-06-02T09:48:04.649Z,51.30
2018-06-02T09:50:33.203Z,51.20
2018-06-02T09:53:00.815Z,51.20
2018-06-02T09:55:29.163Z,51.40
2018-06-02T09:57:56.782Z,51.30
2018-06-02T10:00:25.626Z,51.10
2018-06-02T10:02:53.234Z,51.00
2018-06-02T10:05:21.071Z,51.00
2018-06-02T10:07:48.683Z,51.70
2018-06-02T10:10:16.264Z,51.20
2018-06-02T10:12:44.646Z,51.10
2018-06-02T10:15:12.488Z,51.10
2018-06-02T10:17:40.091Z,51.20
2018-06-02T10:20:08.142Z,51.10
2018-06-02T10:22:35.751Z,51.00
2018-06-02T10:25:03.988Z,51.10
2018-06-02T10:27:31.566Z,51.20
2018-06-02T10:29:59.180Z,51.20
2018-06-02T10:32:26.756Z,51.10
2018-06-02T10:34:54.371Z,51.10
2018-06-02T10:37:21.948Z,51.10
2018-06-02T10:39:49.562Z,50.40
2018-06-02T10:42:17.147Z,50.50
2018-06-02T10:44:44.765Z,50.30
2018-06-02T10:47:12.342Z,50.40
2018-06-02T10:49:39.982Z,50.20
2018-06-02T10:52:08.323Z,50.40
2018-06-02T10:54:35.939Z,50.40
2018-06-02T10:57:04.278Z,50.20
2018-06-02T10:59:31.887Z,50.20
2018-06-02T11:01:59.471Z,50.30
2018-06-02T11:04:27.846Z,50.40
2018-06-02T11:06:55.428Z,50.40
2018-06-02T11:09:23.038Z,50.30
2018-06-02T11:11:50.611Z,50.40
2018-06-02T11:14:18.231Z,50.40
2018-06-02T11:16:45.811Z,49.90
2018-06-02T11:19:13.431Z,50.20
2018-06-02T11:21:41.015Z,50.30
2018-06-02T11:24:08.686Z,49.90
2018-06-02T11:26:36.263Z,50.10
2018-06-02T11:29:03.909Z,50.20
2018-06-02T11:31:31.522Z,50.10
2018-06-02T11:33:59.143Z,50.30
2018-06-02T11:36:27.495Z,50.30
2018-06-02T11:38:55.115Z,50.20
2018-06-02T11:41:23.460Z,50.30
2018-06-02T11:43:51.075Z,50.30
2018-06-02T11:46:19.427Z,50.20
2018-06-02T11:48:48.551Z,50.20
2018-06-02T11:51:16.174Z,50.20
2018-06-02T11:53:43.751Z,50.20
2018-06-02T11:56:11.363Z,50.20
2018-06-02T11:58:38.947Z,50.20
2018-06-02T12:01:06.595Z,50.20
2018-06-02T12:03:34.166Z,50.30
2018-06-02T12:06:01.839Z,50.30
2018-06-02T12:08:29.422Z,50.30
2018-06-02T12:10:57.034Z,50.30
2018-06-02T12:13:24.611Z,50.10
2018-06-02T12:15:52.299Z,50.20
2018-06-02T12:18:19.876Z,50.00
2018-06-02T12:20:47.491Z,50.10
2018-06-02T12:23:15.071Z,49.50
2018-06-02T12:25:44.195Z,49.60
2018-06-02T12:28:12.588Z,49.70
2018-06-02T12:30:40.175Z,49.60
2018-06-02T12:33:07.751Z,49.60
2018-06-02T12:35:35.363Z,49.40
2018-06-02T12:38:02.945Z,49.40
2018-06-02T12:40:30.558Z,49.40
2018-06-02T12:42:58.139Z,50.10
2018-06-02T12:45:26.054Z,49.50
2018-06-02T12:47:53.632Z,49.60
2018-06-02T12:50:21.507Z,49.60
2018-06-02T12:52:49.088Z,49.70
2018-06-02T12:55:16.703Z,49.60
2018-06-02T12:57:45.048Z,49.60
2018-06-02T13:00:12.915Z,49.60
2018-06-02T13:02:40.491Z,49.60
2018-06-02T13:05:08.476Z,49.60
2018-06-02T13:07:36.067Z,49.70
2018-06-02T13:10:03.906Z,49.50
2018-06-02T13:12:31.483Z,49.60
2018-06-02T13:14:59.059Z,49.60
2018-06-02T13:17:26.676Z,49.60
2018-06-02T13:19:54.258Z,49.70
2018-06-02T13:22:22.634Z,49.80
2018-06-02T13:24:50.212Z,49.70
2018-06-02T13:27:18.599Z,50.50
2018-06-02T13:29:46.179Z,49.80
2018-06-02T13:32:14.559Z,50.60
2018-06-02T13:34:42.149Z,49.80
2018-06-02T13:37:10.535Z,49.90
2018-06-02T13:39:38.881Z,49.80
2018-06-02T13:42:06.504Z,49.80
2018-06-02T13:44:34.853Z,49.70
2018-06-02T13:47:02.474Z,49.70
2018-06-02T13:49:30.820Z,49.80
2018-06-02T13:51:58.466Z,49.70
2018-06-02T13:54:26.070Z,49.70
2018-06-02T13:56:53.680Z,49.80
2018-06-02T13:59:22.023Z,49.80
2018-06-02T14:01:49.632Z,49.70
2018-06-02T14:04:17.206Z,49.70
2018-06-02T14:06:45.584Z,50.20
2018-06-02T14:09:13.163Z,49.70
2018-06-02T14:11:40.779Z,49.70
2018-06-02T14:14:08.368Z,49.70
2018-06-02T14:16:35.978Z,49.70
2018-06-02T14:19:03.547Z,49.70
2018-06-02T14:21:31.162Z,49.60
2018-06-02T14:23:58.740Z,49.60
2018-06-02T14:26:26.354Z,49.70
2018-06-02T14:28:53.940Z,49.60
2018-06-02T14:31:21.552Z,49.60
2018-06-02T14:33:49.136Z,50.40
2018-06-02T14:36:16.740Z,49.70
2018-06-02T14:38:44.355Z,49.60
2018-06-02T14:41:11.950Z,49.60
2018-06-02T14:43:39.583Z,49.60
2018-06-02T14:46:07.932Z,49.60
2018-06-02T14:48:35.554Z,49.60
2018-06-02T14:51:03.898Z,49.60
2018-06-02T14:53:31.510Z,49.50
2018-06-02T14:55:59.087Z,49.50
2018-06-02T14:58:27.468Z,49.60
2018-06-02T15:00:55.056Z,49.50
2018-06-02T15:03:23.443Z,49.50
2018-06-02T15:05:51.787Z,49.50
2018-06-02T15:08:19.434Z,49.50
2018-06-02T15:10:47.015Z,49.50
2018-06-02T15:13:14.622Z,49.50
2018-06-02T15:15:42.203Z,49.50
2018-06-02T15:18:09.815Z,49.50
2018-06-02T15:20:37.415Z,49.50
2018-06-02T15:23:05.027Z,49.50
2018-06-02T15:25:32.635Z,49.50
2018-06-02T15:28:00.247Z,49.50
2018-06-02T15:30:28.013Z,49.50
2018-06-02T15:32:55.625Z,49.80
2018-06-02T15:35:23.386Z,49.40
2018-06-02T15:37:50.999Z,49.50
2018-06-02T15:40:18.575Z,49.40
2018-06-02T15:42:46.182Z,49.40
2018-06-02T15:45:14.055Z,49.40
2018-06-02T15:47:41.668Z,49.40
2018-06-02T15:50:09.514Z,49.40
2018-06-02T15:52:37.132Z,49.30
2018-06-02T15:55:05.572Z,49.40
2018-06-02T15:57:33.182Z,49.40
2018-06-02T16:00:00.767Z,49.40
2018-06-02T16:02:29.147Z,49.40
2018-06-02T16:04:56.728Z,49.40
2018-06-02T16:07:25.111Z,49.30
2018-06-02T16:09:52.717Z,49.10
2018-06-02T16:12:20.294Z,49.10
2018-06-02T16:14:47.907Z,49.20
2018-06-02T16:17:15.489Z,49.20
2018-06-02T16:19:43.107Z,49.30
2018-06-02T16:22:10.720Z,49.30
2018-06-02T16:24:38.335Z,49.30
2018-06-02T16:27:06.679Z,49.30
2018-06-02T16:29:34.295Z,49.90
2018-06-02T16:32:02.639Z,48.80
2018-06-02T16:34:30.303Z,49.30
2018-06-02T16:36:57.939Z,49.30
2018-06-02T16:39:26.319Z,49.40
2018-06-02T16:41:54.675Z,49.30
2018-06-02T16:44:22.292Z,49.30
2018-06-02T16:46:50.639Z,49.50
2018-06-02T16:49:18.250Z,49.40
2018-06-02T16:51:45.830Z,49.40
2018-06-02T16:54:14.207Z,49.40
2018-06-02T16:56:42.057Z,49.40
2018-06-02T16:59:09.667Z,49.40
2018-06-02T17:01:38.155Z,49.40
2018-06-02T17:04:05.768Z,49.40
2018-06-02T17:06:33.351Z,49.70
2018-06-02T17:09:00.967Z,49.40
2018-06-02T17:11:28.544Z,49.50
2018-06-02T17:13:56.156Z,49.50
2018-06-02T17:16:23.752Z,49.50
2018-06-02T17:18:51.457Z,49.50
2018-06-02T17:21:19.020Z,49.50
2018-06-02T17:23:46.635Z,49.50
2018-06-02T17:26:14.215Z,49.60
2018-06-02T17:28:41.902Z,49.60
2018-06-02T17:31:09.523Z,49.60
2018-06-02T17:33:37.135Z,49.60
2018-06-02T17:36:04.716Z,49.60
2018-06-02T17:38:32.335Z,49.60
2018-06-02T17:40:59.919Z,49.60
2018-06-02T17:43:27.495Z,49.60
2018-06-02T17:45:55.107Z,49.60
2018-06-02T17:48:22.693Z,49.70
2018-06-02T17:50:50.307Z,49.70
2018-06-02T17:53:17.896Z,49.70
2018-06-02T17:55:46.279Z,49.70
2018-06-02T17:58:14.623Z,49.70
2018-06-02T18:00:42.259Z,49.60
2018-06-02T18:03:10.604Z,49.80
2018-06-02T18:05:38.220Z,49.70
2018-06-02T18:08:05.803Z,50.00
2018-06-02T18:10:33.463Z,50.00
2018-06-02T18:13:01.836Z,50.30
2018-06-02T18:15:29.631Z,50.30
2018-06-02T18:17:57.974Z,50.50
2018-06-02T18:20:25.818Z,50.40
2018-06-02T18:22:53.402Z,50.50
2018-06-02T18:25:21.022Z,50.50
2018-06-02T18:27:48.604Z,50.50
2018-06-02T18:30:16.426Z,50.50
2018-06-02T18:32:44.020Z,50.50
2018-06-02T18:35:11.839Z,50.50
2018-06-02T18:37:40.199Z,50.50
2018-06-02T18:40:07.847Z,50.40
2018-06-02T18:42:35.427Z,51.20
2018-06-02T18:45:04.217Z,50.50
2018-06-02T18:47:31.807Z,50.50
2018-06-02T18:49:59.422Z,50.60
2018-06-02T18:52:27.778Z,50.70
2018-06-02T18:54:55.399Z,50.50
2018-06-02T18:57:23.756Z,50.60
2018-06-02T18:59:51.379Z,50.50
2018-06-02T19:02:19.120Z,50.50
2018-06-02T19:04:46.744Z,50.50
2018-06-02T19:07:14.363Z,50.50
2018-06-02T19:09:41.952Z,50.50
2018-06-02T19:12:09.672Z,50.40
2018-06-02T19:14:37.275Z,50.40
2018-06-02T19:17:05.086Z,50.40
2018-06-02T19:19:32.764Z,50.40
2018-06-02T19:22:01.151Z,50.30
2018-06-02T19:24:29.503Z,50.30
2018-06-02T19:26:57.120Z,50.20
2018-06-02T19:29:24.814Z,50.20
2018-06-02T19:31:52.784Z,50.20
2018-06-02T19:34:20.382Z,50.10
2018-06-02T19:36:48.006Z,50.00
2018-06-02T19:39:15.647Z,49.90
2018-06-02T19:41:43.275Z,50.00
2018-06-02T19:44:10.951Z,50.00
2018-06-02T19:46:38.567Z,50.00
2018-06-02T19:49:06.156Z,49.90
2018-06-02T19:51:33.767Z,49.90
2018-06-02T19:54:01.343Z,49.90
2018-06-02T19:56:28.960Z,49.90
2018-06-02T19:59:41.343Z,49.90
2018-06-02T20:02:10.219Z,49.90
2018-06-02T20:04:39.206Z,50.00
2018-06-02T20:07:08.247Z,50.00
2018-06-02T20:09:37.219Z,49.90
2018-06-02T20:12:06.063Z,50.00
2018-06-02T20:14:35.019Z,50.00
2018-06-02T20:17:04.067Z,50.00
2018-06-02T20:19:33.137Z,49.90
2018-06-02T20:22:02.062Z,50.00
2018-06-02T20:24:30.867Z,49.90
2018-06-02T20:26:59.747Z,49.80
2018-06-02T20:29:28.647Z,49.90
2018-06-02T20:31:57.684Z,49.90
2018-06-02T20:34:26.655Z,49.90
2018-06-02T20:36:55.662Z,49.90
2018-06-02T20:39:24.666Z,49.90
2018-06-02T20:41:53.915Z,50.00
2018-06-02T20:44:22.988Z,50.00
2018-06-02T20:46:52.311Z,50.00
2018-06-02T20:49:21.411Z,50.00
2018-06-02T20:51:50.305Z,50.10
2018-06-02T20:54:19.123Z,50.10
2018-06-02T20:56:48.147Z,50.10
2018-06-02T20:59:17.229Z,50.30
2018-06-02T21:01:46.266Z,50.20
2018-06-02T21:04:15.307Z,50.20
2018-06-02T21:06:44.484Z,50.20
2018-06-02T21:09:13.455Z,50.20
2018-06-02T21:11:42.503Z,50.30
2018-06-02T21:14:12.212Z,50.20
2018-06-02T21:16:41.059Z,50.30
2018-06-02T21:19:09.864Z,50.30
2018-06-02T21:21:38.929Z,50.30
2018-06-02T21:24:07.889Z,50.30
2018-06-02T21:26:36.767Z,50.40
2018-06-02T21:29:05.567Z,50.40
2018-06-02T21:31:34.425Z,50.40
2018-06-02T21:34:03.407Z,50.40
2018-06-02T21:36:32.547Z,50.40
2018-06-02T21:39:01.619Z,50.50
2018-06-02T21:41:30.672Z,50.50
2018-06-02T21:43:59.839Z,50.50
2018-06-02T21:46:28.643Z,50.60
2018-06-02T21:48:56.957Z,50.60
2018-06-02T21:51:25.795Z,50.60
2018-06-02T21:53:54.628Z,50.70
2018-06-02T21:56:23.484Z,50.70
2018-06-02T21:58:52.567Z,50.80
2018-06-02T22:03:52.867Z,50.80
2018-06-02T22:06:21.784Z,50.80
2018-06-02T22:08:50.747Z,50.80
2018-06-02T22:11:19.564Z,50.80
2018-06-02T22:13:48.514Z,50.80
2018-06-02T22:16:17.476Z,50.90
2018-06-02T22:18:46.319Z,50.90
2018-06-02T22:21:15.131Z,50.90
2018-06-02T22:23:44.168Z,50.90
2018-06-02T22:26:13.135Z,51.00
2018-06-02T22:28:42.171Z,51.00
2018-06-02T22:31:11.148Z,51.00
2018-06-02T22:33:40.188Z,51.00
2018-06-02T22:36:09.295Z,50.90
2018-06-02T22:38:38.400Z,50.80
2018-06-02T22:41:07.474Z,50.80
2018-06-02T22:43:36.618Z,50.80
2018-06-02T22:46:05.795Z,50.80
2018-06-02T22:48:34.832Z,50.70
2018-06-02T22:51:04.008Z,50.70
2018-06-02T22:53:33.242Z,50.60
2018-06-02T22:56:02.404Z,50.70
2018-06-02T22:58:31.279Z,50.60
2018-06-02T23:01:00.158Z,50.60
2018-06-02T23:03:29.155Z,50.70
2018-06-02T23:05:58.159Z,50.70
2018-06-02T23:08:27.203Z,50.70
2018-06-02T23:10:56.192Z,50.70
2018-06-02T23:13:25.061Z,50.60
2018-06-02T23:15:53.858Z,50.60
2018-06-02T23:18:22.727Z,50.70
2018-06-02T23:20:51.539Z,50.70
2018-06-02T23:23:20.394Z,50.70
2018-06-02T23:25:49.196Z,50.70
2018-06-02T23:28:18.121Z,50.70
2018-06-02T23:30:47.003Z,50.70
2018-06-02T23:33:15.851Z,50.80
2018-06-02T23:35:44.723Z,50.80
2018-06-02T23:38:13.566Z,50.70
2018-06-02T23:40:42.371Z,50.70
2018-06-02T23:43:11.211Z,50.80
2018-06-02T23:45:40.028Z,50.80
2018-06-02T23:48:08.875Z,50.80
2018-06-02T23:50:37.678Z,50.70
2018-06-02T23:53:06.515Z,50.70
2018-06-02T23:55:35.520Z,50.80
2018-06-02T23:58:04.599Z,50.80
